createdAt,value
2019-03-03T00:01:43.362Z,20.27
2019-03-03T00:04:10.364Z,17.02
2019-03-03T00:06:37.474Z,17.45
2019-03-03T00:09:05.102Z,13.95
2019-03-03T00:11:33.979Z,19.32
2019-03-03T00:14:02.042Z,15.88
2019-03-03T00:16:29.356Z,17.00
2019-03-03T00:18:56.974Z,15.75
2019-03-03T00:21:25.097Z,19.92
2019-03-03T00:23:52.390Z,12.78
2019-03-03T00:26:19.641Z,20.95
2019-03-03T00:28:46.827Z,20.10
2019-03-03T00:31:14.683Z,17.40
2019-03-03T00:33:41.781Z,18.67
2019-03-03T00:36:08.849Z,13.53
2019-03-03T00:38:37.673Z,19.37
2019-03-03T00:41:09.510Z,14.58
2019-03-03T00:43:50.349Z,16.65
2019-03-03T00:46:34.396Z,18.90
2019-03-03T00:49:03.374Z,14.00
2019-03-03T00:51:38.387Z,15.15
2019-03-03T00:54:25.981Z,18.07
2019-03-03T00:56:54.807Z,13.90
2019-03-03T00:59:29.618Z,15.58
2019-03-03T01:02:13.942Z,23.10
2019-03-03T01:04:43.056Z,25.75
2019-03-03T01:07:18.280Z,16.35
2019-03-03T01:09:56.221Z,14.60
2019-03-03T01:12:37.261Z,17.25
2019-03-03T01:15:24.985Z,17.30
2019-03-03T01:17:53.771Z,18.48
2019-03-03T01:20:28.674Z,17.20
2019-03-03T01:22:57.520Z,13.40
2019-03-03T01:25:24.569Z,13.25
2019-03-03T01:27:51.621Z,10.45
2019-03-03T01:30:18.845Z,16.25
2019-03-03T01:32:46.769Z,14.83
2019-03-03T01:35:14.722Z,12.78
2019-03-03T01:37:41.889Z,11.18
2019-03-03T01:40:10.201Z,17.87
2019-03-03T01:42:37.316Z,15.08
2019-03-03T01:45:14.265Z,12.53
2019-03-03T01:47:41.405Z,20.37
2019-03-03T01:50:10.630Z,20.02
2019-03-03T01:52:37.797Z,16.05
2019-03-03T01:55:07.462Z,16.90
2019-03-03T01:57:34.557Z,20.85
2019-03-03T02:00:15.220Z,18.92
2019-03-03T02:02:42.304Z,23.12
2019-03-03T02:05:09.370Z,19.37
2019-03-03T02:07:41.947Z,17.62
2019-03-03T02:10:09.173Z,14.28
2019-03-03T02:12:36.538Z,14.25
2019-03-03T02:15:05.889Z,17.67
2019-03-03T02:17:33.133Z,16.73
2019-03-03T02:20:01.136Z,15.55
2019-03-03T02:22:28.278Z,19.98
2019-03-03T02:24:55.242Z,18.37
2019-03-03T02:27:23.382Z,16.48
2019-03-03T02:29:51.392Z,24.12
2019-03-03T02:32:18.471Z,18.92
2019-03-03T02:34:45.510Z,22.20
2019-03-03T02:37:12.560Z,15.18
2019-03-03T02:39:39.609Z,19.35
2019-03-03T02:42:06.735Z,17.25
2019-03-03T02:44:33.703Z,25.80
2019-03-03T02:47:00.835Z,18.37
2019-03-03T02:49:30.196Z,14.75
2019-03-03T02:51:57.237Z,16.37
2019-03-03T02:54:24.295Z,20.77
2019-03-03T02:56:51.390Z,23.15
2019-03-03T02:59:18.435Z,19.05
2019-03-03T03:01:47.499Z,15.38
2019-03-03T03:04:14.665Z,20.55
2019-03-03T03:06:43.522Z,18.05
2019-03-03T03:09:15.429Z,20.40
2019-03-03T03:11:47.086Z,18.70
2019-03-03T03:14:18.753Z,18.15
2019-03-03T03:16:59.702Z,23.45
2019-03-03T03:19:34.494Z,18.48
2019-03-03T03:22:04.429Z,22.40
2019-03-03T03:24:36.035Z,17.90
2019-03-03T03:27:14.315Z,12.73
2019-03-03T03:29:43.155Z,17.85
2019-03-03T03:32:17.850Z,16.32
2019-03-03T03:37:24.247Z,19.32
2019-03-03T03:40:05.323Z,11.57
2019-03-03T03:42:34.230Z,16.17
2019-03-03T03:45:06.120Z,20.95
2019-03-03T03:47:37.770Z,13.65
2019-03-03T03:50:18.221Z,14.28
2019-03-03T03:52:47.074Z,15.28
2019-03-03T03:55:18.998Z,19.77
2019-03-03T03:57:56.636Z,19.52
2019-03-03T04:00:44.058Z,16.30
2019-03-03T04:03:15.313Z,17.90
2019-03-03T04:05:44.156Z,19.60
2019-03-03T04:08:18.887Z,14.58
2019-03-03T04:13:43.202Z,10.00
2019-03-03T04:16:14.853Z,11.95
2019-03-03T04:18:49.482Z,12.00
2019-03-03T04:23:55.947Z,9.43
2019-03-03T04:26:27.776Z,9.80
2019-03-03T04:29:13.390Z,14.40
2019-03-03T04:31:57.539Z,14.20
2019-03-03T04:34:26.546Z,7.92
2019-03-03T04:36:58.138Z,7.05
2019-03-03T04:39:33.106Z,13.00
2019-03-03T04:42:11.190Z,8.38
2019-03-03T04:44:40.102Z,8.63
2019-03-03T04:47:17.455Z,8.53
2019-03-03T04:49:55.358Z,8.53
2019-03-03T04:52:24.141Z,6.28
2019-03-03T04:55:09.653Z,8.63
2019-03-03T04:57:38.462Z,8.08
2019-03-03T05:00:17.132Z,7.65
2019-03-03T05:02:46.021Z,6.05
2019-03-03T05:05:15.766Z,9.75
2019-03-03T05:07:50.686Z,5.03
2019-03-03T05:10:19.560Z,7.62
2019-03-03T05:12:51.626Z,7.45
2019-03-03T05:15:22.885Z,4.20
2019-03-03T05:17:54.217Z,7.60
2019-03-03T05:20:21.362Z,6.75
2019-03-03T05:22:48.348Z,3.90
2019-03-03T05:25:15.368Z,5.22
2019-03-03T05:27:42.450Z,7.30
2019-03-03T05:30:11.652Z,4.67
2019-03-03T05:32:38.918Z,7.75
2019-03-03T05:35:07.070Z,4.80
2019-03-03T05:37:35.141Z,6.67
2019-03-03T05:40:03.741Z,3.67
2019-03-03T05:42:30.999Z,5.58
2019-03-03T05:44:58.061Z,4.03
2019-03-03T05:47:25.197Z,3.60
2019-03-03T05:49:52.277Z,6.33
2019-03-03T05:52:19.337Z,3.60
2019-03-03T05:54:46.398Z,1.95
2019-03-03T05:57:13.365Z,1.90
2019-03-03T05:59:40.393Z,2.67
2019-03-03T06:02:07.458Z,2.98
2019-03-03T06:04:35.007Z,5.60
2019-03-03T06:07:04.522Z,4.47
2019-03-03T06:09:32.713Z,5.10
2019-03-03T06:11:59.977Z,5.47
2019-03-03T06:14:27.158Z,7.75
2019-03-03T06:16:54.241Z,6.08
2019-03-03T06:19:21.407Z,7.53
2019-03-03T06:21:48.569Z,5.70
2019-03-03T06:24:15.649Z,4.90
2019-03-03T06:26:42.693Z,8.43
2019-03-03T06:29:10.505Z,4.80
2019-03-03T06:31:37.541Z,5.00
2019-03-03T06:34:04.616Z,6.05
2019-03-03T06:36:31.702Z,7.28
2019-03-03T06:38:58.837Z,5.70
2019-03-03T06:41:25.829Z,2.67
2019-03-03T06:43:53.047Z,4.33
2019-03-03T06:46:20.080Z,6.30
2019-03-03T06:48:47.128Z,4.28
2019-03-03T06:51:14.176Z,7.53
2019-03-03T06:53:41.223Z,4.53
2019-03-03T06:56:08.271Z,6.12
2019-03-03T06:58:35.292Z,7.22
2019-03-03T07:01:02.342Z,7.47
2019-03-03T07:03:29.397Z,7.75
2019-03-03T07:05:56.654Z,9.05
2019-03-03T07:08:23.665Z,6.30
2019-03-03T07:10:50.749Z,6.70
2019-03-03T07:13:17.814Z,6.80
2019-03-03T07:15:44.877Z,5.22
2019-03-03T07:18:12.246Z,5.40
2019-03-03T07:20:39.427Z,7.17
2019-03-03T07:23:06.476Z,2.10
2019-03-03T07:25:33.524Z,4.45
2019-03-03T07:28:06.598Z,5.15
2019-03-03T07:30:33.786Z,3.87
2019-03-03T07:33:05.562Z,3.67
2019-03-03T07:35:32.728Z,3.30
2019-03-03T07:37:59.849Z,1.32
2019-03-03T07:40:27.838Z,2.72
2019-03-03T07:42:55.010Z,2.58
2019-03-03T07:45:22.163Z,3.55
2019-03-03T07:47:50.045Z,2.58
2019-03-03T07:50:17.238Z,4.25
2019-03-03T07:52:44.455Z,3.40
2019-03-03T07:55:12.432Z,1.82
2019-03-03T07:57:39.616Z,1.92
2019-03-03T08:00:13.144Z,2.42
2019-03-03T08:02:40.301Z,5.08
2019-03-03T08:05:09.012Z,2.70
2019-03-03T08:07:36.193Z,5.58
2019-03-03T08:10:06.562Z,4.55
2019-03-03T08:12:33.607Z,6.65
2019-03-03T08:15:00.663Z,4.70
2019-03-03T08:17:27.745Z,6.85
2019-03-03T08:19:54.765Z,5.20
2019-03-03T08:22:21.841Z,5.90
2019-03-03T08:24:51.363Z,4.87
2019-03-03T08:27:18.617Z,2.60
2019-03-03T08:29:45.626Z,5.47
2019-03-03T08:32:12.721Z,6.67
2019-03-03T08:34:39.696Z,4.33
2019-03-03T08:37:06.744Z,3.80
2019-03-03T08:39:33.803Z,3.00
2019-03-03T08:42:02.710Z,5.62
2019-03-03T08:44:31.565Z,3.62
2019-03-03T08:47:03.202Z,2.58
2019-03-03T08:49:50.183Z,2.10
2019-03-03T08:52:19.482Z,2.80
2019-03-03T08:54:51.000Z,1.25
2019-03-03T08:57:25.687Z,2.35
2019-03-03T08:59:55.541Z,2.65
2019-03-03T09:02:25.303Z,2.12
2019-03-03T09:04:57.023Z,2.77
2019-03-03T09:07:35.341Z,1.85
2019-03-03T09:10:11.017Z,2.05
2019-03-03T09:12:39.853Z,3.08
2019-03-03T09:15:23.100Z,2.65
2019-03-03T09:17:57.936Z,1.65
2019-03-03T09:20:33.149Z,2.50
2019-03-03T09:23:17.061Z,2.20
2019-03-03T09:25:48.795Z,1.45
2019-03-03T09:28:20.574Z,1.95
2019-03-03T09:31:01.541Z,0.90
2019-03-03T09:33:30.637Z,0.98
2019-03-03T09:36:08.118Z,1.42
2019-03-03T09:38:49.281Z,0.25
2019-03-03T09:41:34.686Z,1.45
2019-03-03T09:44:03.494Z,0.10
2019-03-03T09:46:38.305Z,1.32
2019-03-03T09:49:10.069Z,3.12
2019-03-03T09:51:50.704Z,0.72
2019-03-03T09:54:23.056Z,1.77
2019-03-03T09:56:57.658Z,0.60
2019-03-03T10:02:00.883Z,0.93
2019-03-03T10:04:48.189Z,2.80
2019-03-03T10:07:18.054Z,1.92
2019-03-03T10:09:52.681Z,1.70
2019-03-03T10:12:21.633Z,0.98
2019-03-03T10:14:59.534Z,1.65
2019-03-03T10:17:34.266Z,1.12
2019-03-03T10:22:45.850Z,1.05
2019-03-03T10:25:15.679Z,0.65
2019-03-03T10:27:50.378Z,1.82
2019-03-03T10:33:00.586Z,3.00
2019-03-03T10:35:46.129Z,0.25
2019-03-03T10:38:17.542Z,0.10
2019-03-03T10:40:55.444Z,1.65
2019-03-03T10:43:27.066Z,0.23
2019-03-03T10:46:01.950Z,0.50
2019-03-03T10:48:37.898Z,0.72
2019-03-03T10:51:15.868Z,0.45
2019-03-03T10:53:53.386Z,3.45
2019-03-03T10:56:23.381Z,0.68
2019-03-03T10:58:52.256Z,0.35
2019-03-03T11:01:33.382Z,1.05
2019-03-03T11:04:02.378Z,1.37
2019-03-03T11:06:34.286Z,0.30
2019-03-03T11:09:03.181Z,0.78
2019-03-03T11:11:43.060Z,0.93
2019-03-03T11:14:14.954Z,2.65
2019-03-03T11:17:02.091Z,1.05
2019-03-03T11:19:33.591Z,0.57
2019-03-03T11:25:02.196Z,0.10
2019-03-03T11:27:34.307Z,0.20
2019-03-03T11:30:05.978Z,0.28
2019-03-03T11:32:47.464Z,0.10
2019-03-03T11:35:22.238Z,0.30
2019-03-03T11:37:51.083Z,0.30
2019-03-03T11:40:19.916Z,0.37
2019-03-03T11:43:05.486Z,0.20
2019-03-03T11:45:38.483Z,0.80
2019-03-03T11:48:19.926Z,0.50
2019-03-03T11:51:01.261Z,0.28
2019-03-03T11:53:30.297Z,0.57
2019-03-03T11:56:15.703Z,0.82
2019-03-03T11:58:44.564Z,0.40
2019-03-03T12:01:25.848Z,0.95
2019-03-03T12:04:11.401Z,0.42
2019-03-03T12:06:46.848Z,1.47
2019-03-03T12:09:24.717Z,1.45
2019-03-03T12:11:59.599Z,1.95
2019-03-03T12:14:28.409Z,2.22
2019-03-03T12:16:57.280Z,1.22
2019-03-03T12:19:26.261Z,1.05
2019-03-03T12:21:57.895Z,2.27
2019-03-03T12:24:42.217Z,0.93
2019-03-03T12:27:17.299Z,0.65
2019-03-03T12:29:51.983Z,0.78
2019-03-03T12:32:20.914Z,2.22
2019-03-03T12:35:03.698Z,1.50
2019-03-03T12:37:38.737Z,2.25
2019-03-03T12:40:11.055Z,1.15
2019-03-03T12:42:52.253Z,1.07
2019-03-03T12:45:21.057Z,1.87
2019-03-03T12:48:02.269Z,2.67
2019-03-03T12:50:33.911Z,1.67
2019-03-03T12:53:03.811Z,1.87
2019-03-03T12:55:38.640Z,1.72
2019-03-03T12:58:22.747Z,1.62
2019-03-03T13:01:00.785Z,2.90
2019-03-03T13:03:29.865Z,0.68
2019-03-03T13:06:07.764Z,0.53
2019-03-03T13:08:46.779Z,2.25
2019-03-03T13:11:15.771Z,0.35
2019-03-03T13:14:03.036Z,0.80
2019-03-03T13:16:48.185Z,2.52
2019-03-03T13:19:17.090Z,0.37
2019-03-03T13:21:51.507Z,0.72
2019-03-03T13:24:23.208Z,0.98
2019-03-03T13:27:09.077Z,0.40
2019-03-03T13:29:38.312Z,1.92
2019-03-03T13:32:16.565Z,0.42
2019-03-03T13:34:55.378Z,0.53
2019-03-03T13:37:36.600Z,0.15
2019-03-03T13:40:08.429Z,0.57
2019-03-03T13:42:37.245Z,1.17
2019-03-03T13:45:07.930Z,1.02
2019-03-03T13:47:35.003Z,0.30
2019-03-03T13:50:02.531Z,0.20
2019-03-03T13:52:29.505Z,0.98
2019-03-03T13:54:56.629Z,0.90
2019-03-03T13:57:23.614Z,0.90
2019-03-03T13:59:50.769Z,0.42
2019-03-03T14:02:17.790Z,1.95
2019-03-03T14:04:46.741Z,0.93
2019-03-03T14:07:13.720Z,1.37
2019-03-03T14:09:40.841Z,1.12
2019-03-03T14:12:07.813Z,0.75
2019-03-03T14:14:34.926Z,1.82
2019-03-03T14:17:01.919Z,0.37
2019-03-03T14:19:28.973Z,2.35
2019-03-03T14:21:56.005Z,2.52
2019-03-03T14:24:23.352Z,1.75
2019-03-03T14:26:50.491Z,1.32
2019-03-03T14:29:17.648Z,1.45
2019-03-03T14:31:44.962Z,2.10
2019-03-03T14:34:13.050Z,1.22
2019-03-03T14:36:40.193Z,2.47
2019-03-03T14:39:07.333Z,1.20
2019-03-03T14:41:35.990Z,2.17
2019-03-03T14:44:03.076Z,1.87
2019-03-03T14:46:30.635Z,1.17
2019-03-03T14:48:57.730Z,1.15
2019-03-03T14:51:24.901Z,0.72
2019-03-03T14:53:51.931Z,2.95
2019-03-03T14:56:20.277Z,1.17
2019-03-03T14:58:47.306Z,1.95
2019-03-03T15:01:16.816Z,1.80
2019-03-03T15:03:43.878Z,1.17
2019-03-03T15:06:11.757Z,1.12
2019-03-03T15:08:38.730Z,0.62
2019-03-03T15:11:05.770Z,2.30
2019-03-03T15:13:32.817Z,2.05
2019-03-03T15:15:59.963Z,1.50
2019-03-03T15:18:27.029Z,3.62
2019-03-03T15:20:54.181Z,2.15
2019-03-03T15:23:22.188Z,1.40
2019-03-03T15:25:49.367Z,1.62
2019-03-03T15:28:16.455Z,0.65
2019-03-03T15:30:43.602Z,1.35
2019-03-03T15:33:10.710Z,2.00
2019-03-03T15:35:37.824Z,1.27
2019-03-03T15:38:04.959Z,1.45
2019-03-03T15:40:32.653Z,0.88
2019-03-03T15:42:59.790Z,1.82
2019-03-03T15:45:27.840Z,1.27
2019-03-03T15:47:55.050Z,3.98
2019-03-03T15:50:35.266Z,1.45
2019-03-03T15:53:02.387Z,1.40
2019-03-03T15:55:30.893Z,0.50
2019-03-03T15:57:58.063Z,0.98
2019-03-03T16:00:31.221Z,2.15
2019-03-03T16:02:58.649Z,0.93
2019-03-03T16:05:25.719Z,1.40
2019-03-03T16:07:52.770Z,1.45
2019-03-03T16:10:21.809Z,3.40
2019-03-03T16:12:48.810Z,3.17
2019-03-03T16:15:16.426Z,1.60
2019-03-03T16:17:43.487Z,1.40
2019-03-03T16:20:18.612Z,1.60
2019-03-03T16:22:45.667Z,1.37
2019-03-03T16:25:14.709Z,3.72
2019-03-03T16:27:41.878Z,5.90
2019-03-03T16:30:12.362Z,1.95
2019-03-03T16:32:39.518Z,2.75
2019-03-03T16:35:06.776Z,1.45
2019-03-03T16:37:33.838Z,2.08
2019-03-03T16:40:00.977Z,2.52
2019-03-03T16:42:28.145Z,1.37
2019-03-03T16:44:55.185Z,1.00
2019-03-03T16:47:22.273Z,1.70
2019-03-03T16:49:49.349Z,2.80
2019-03-03T16:52:16.400Z,1.52
2019-03-03T16:54:43.478Z,1.15
2019-03-03T16:57:10.561Z,1.87
2019-03-03T16:59:37.798Z,2.15
2019-03-03T17:02:04.804Z,3.30
2019-03-03T17:04:32.016Z,1.47
2019-03-03T17:06:59.006Z,2.25
2019-03-03T17:09:26.214Z,2.50
2019-03-03T17:12:06.530Z,1.35
2019-03-03T17:14:33.718Z,2.92
2019-03-03T17:17:00.758Z,3.12
2019-03-03T17:19:33.285Z,2.85
2019-03-03T17:22:00.361Z,3.90
2019-03-03T17:24:27.413Z,4.15
2019-03-03T17:26:54.425Z,4.40
2019-03-03T17:29:21.494Z,2.17
2019-03-03T17:31:48.645Z,4.92
2019-03-03T17:34:15.792Z,5.92
2019-03-03T17:36:42.832Z,6.72
2019-03-03T17:39:09.861Z,5.95
2019-03-03T17:41:36.961Z,6.62
2019-03-03T17:44:04.185Z,8.58
2019-03-03T17:46:31.518Z,9.35
2019-03-03T17:48:58.521Z,9.63
2019-03-03T17:51:25.614Z,6.42
2019-03-03T17:53:52.867Z,5.33
2019-03-03T17:56:19.949Z,6.78
2019-03-03T17:58:47.189Z,7.00
2019-03-03T18:01:14.277Z,5.55
2019-03-03T18:03:41.342Z,7.03
2019-03-03T18:06:08.389Z,5.05
2019-03-03T18:08:35.354Z,10.38
2019-03-03T18:11:02.521Z,4.87
2019-03-03T18:13:29.638Z,8.20
2019-03-03T18:15:56.781Z,7.08
2019-03-03T18:18:23.918Z,8.00
2019-03-03T18:20:51.052Z,8.55
2019-03-03T18:23:20.057Z,5.35
2019-03-03T18:25:47.266Z,9.20
2019-03-03T18:28:14.318Z,4.12
2019-03-03T18:30:41.360Z,7.50
2019-03-03T18:33:08.391Z,7.28
2019-03-03T18:35:35.522Z,5.35
2019-03-03T18:38:02.525Z,7.33
2019-03-03T18:40:29.770Z,11.12
2019-03-03T18:42:58.345Z,9.53
2019-03-03T18:45:25.469Z,6.25
2019-03-03T18:47:53.540Z,9.38
2019-03-03T18:50:24.583Z,4.58
2019-03-03T18:52:51.558Z,3.92
2019-03-03T18:55:18.582Z,5.42
2019-03-03T18:57:45.629Z,5.10
2019-03-03T19:00:15.858Z,4.58
2019-03-03T19:02:43.045Z,11.55
2019-03-03T19:05:10.189Z,2.52
2019-03-03T19:07:37.288Z,6.67
2019-03-03T19:10:08.006Z,6.03
2019-03-03T19:12:35.387Z,13.15
2019-03-03T19:15:08.481Z,7.87
2019-03-03T19:17:35.563Z,5.45
2019-03-03T19:20:10.290Z,6.90
2019-03-03T19:22:37.465Z,12.55
2019-03-03T19:25:07.609Z,13.58
2019-03-03T19:27:34.777Z,9.93
2019-03-03T19:30:11.587Z,12.18
2019-03-03T19:32:38.741Z,4.87
2019-03-03T19:35:08.141Z,5.20
2019-03-03T19:37:35.294Z,5.20
2019-03-03T19:40:02.748Z,8.33
2019-03-03T19:42:30.875Z,4.53
2019-03-03T19:44:58.010Z,9.93
2019-03-03T19:47:25.087Z,13.03
2019-03-03T19:49:52.146Z,13.65
2019-03-03T19:52:19.261Z,12.25
2019-03-03T19:54:46.319Z,11.30
2019-03-03T19:57:14.377Z,12.50
2019-03-03T19:59:41.441Z,27.93
2019-03-03T20:02:08.604Z,20.57
2019-03-03T20:04:35.790Z,14.38
2019-03-03T20:07:03.775Z,15.43
2019-03-03T20:09:30.886Z,8.80
2019-03-03T20:11:58.007Z,11.93
2019-03-03T20:14:25.340Z,11.57
2019-03-03T20:16:52.382Z,12.05
2019-03-03T20:19:19.539Z,8.55
2019-03-03T20:21:46.542Z,12.98
2019-03-03T20:24:13.615Z,11.68
2019-03-03T20:26:40.986Z,13.18
2019-03-03T20:29:08.126Z,8.83
2019-03-03T20:31:35.212Z,11.30
2019-03-03T20:34:02.282Z,8.15
2019-03-03T20:36:30.514Z,15.98
2019-03-03T20:38:57.605Z,17.75
2019-03-03T20:41:24.872Z,13.93
2019-03-03T20:43:51.972Z,11.50
2019-03-03T20:46:20.133Z,8.60
2019-03-03T20:48:47.369Z,7.55
2019-03-03T20:51:14.508Z,14.78
2019-03-03T20:53:41.663Z,13.40
2019-03-03T20:56:08.712Z,10.70
2019-03-03T20:58:35.775Z,8.33
2019-03-03T21:01:03.197Z,7.47
2019-03-03T21:03:32.288Z,11.97
2019-03-03T21:05:59.341Z,13.18
2019-03-03T21:08:26.455Z,6.42
2019-03-03T21:10:53.504Z,12.18
2019-03-03T21:13:20.634Z,17.75
2019-03-03T21:15:47.662Z,12.30
2019-03-03T21:18:14.685Z,5.62
2019-03-03T21:20:41.853Z,14.60
2019-03-03T21:23:08.895Z,15.95
2019-03-03T21:25:35.953Z,6.45
2019-03-03T21:28:03.019Z,9.15
2019-03-03T21:30:30.357Z,11.57
2019-03-03T21:33:05.144Z,11.63
2019-03-03T21:35:32.119Z,7.75
2019-03-03T21:37:59.250Z,9.18
2019-03-03T21:40:26.860Z,6.05
2019-03-03T21:42:54.237Z,10.08
2019-03-03T21:45:26.630Z,8.88
2019-03-03T21:47:54.418Z,8.43
2019-03-03T21:50:23.816Z,6.90
2019-03-03T21:52:53.286Z,11.08
2019-03-03T21:55:20.380Z,9.23
2019-03-03T21:57:49.298Z,5.35
2019-03-03T22:00:26.490Z,6.22
2019-03-03T22:02:53.525Z,7.95
2019-03-03T22:05:20.593Z,12.20
2019-03-03T22:07:47.756Z,7.85
2019-03-03T22:10:17.565Z,6.20
2019-03-03T22:12:44.634Z,6.10
2019-03-03T22:15:12.783Z,8.05
2019-03-03T22:17:39.835Z,2.67
2019-03-03T22:20:08.077Z,3.42
2019-03-03T22:22:35.171Z,5.33
2019-03-03T22:25:02.497Z,0.93
2019-03-03T22:27:30.708Z,5.10
2019-03-03T22:29:57.757Z,1.82
2019-03-03T22:32:24.721Z,3.22
2019-03-03T22:34:54.134Z,3.47
2019-03-03T22:37:21.177Z,1.67
2019-03-03T22:39:48.225Z,1.75
2019-03-03T22:42:15.187Z,2.33
2019-03-03T22:44:42.235Z,1.98
2019-03-03T22:47:09.256Z,3.15
2019-03-03T22:49:36.536Z,1.57
2019-03-03T22:52:03.561Z,2.08
2019-03-03T22:54:30.856Z,2.67
2019-03-03T22:57:00.285Z,3.20
2019-03-03T22:59:27.314Z,2.05
2019-03-03T23:01:55.598Z,3.27
2019-03-03T23:04:41.373Z,4.97
2019-03-03T23:07:23.578Z,2.17
2019-03-03T23:10:20.196Z,2.77
2019-03-03T23:12:59.630Z,4.42
2019-03-03T23:18:31.362Z,1.70
2019-03-03T23:21:02.126Z,2.47
2019-03-03T23:23:54.193Z,2.20
2019-03-03T23:26:21.225Z,1.62
2019-03-03T23:28:48.197Z,1.82
2019-03-03T23:31:15.233Z,1.37
2019-03-03T23:33:43.254Z,2.22
2019-03-03T23:36:10.397Z,2.58
2019-03-03T23:38:37.374Z,2.45
2019-03-03T23:41:04.405Z,1.40
2019-03-03T23:43:31.441Z,0.90
2019-03-03T23:45:58.590Z,3.45
2019-03-03T23:48:26.791Z,1.92
2019-03-03T23:50:54.494Z,1.25
2019-03-03T23:53:21.538Z,5.70
2019-03-03T23:55:48.505Z,1.60
2019-03-03T23:58:15.541Z,2.37
